createdAt,value
2023-05-03T00:00:26.123Z,42.86
2023-05-03T00:01:28.320Z,42.90
2023-05-03T00:02:31.614Z,42.91
2023-05-03T00:03:34.513Z,42.90
2023-05-03T00:04:36.680Z,42.86
2023-05-03T00:05:39.143Z,42.86
2023-05-03T00:06:43.908Z,42.82
2023-05-03T00:07:46.805Z,42.79
2023-05-03T00:09:58.335Z,42.88
2023-05-03T00:11:00.949Z,42.94
2023-05-03T00:12:04.363Z,42.98
2023-05-03T00:13:07.017Z,43.06
2023-05-03T00:14:09.660Z,43.03
2023-05-03T00:15:12.440Z,43.10
2023-05-03T00:16:14.862Z,43.13
2023-05-03T00:17:16.943Z,43.09
2023-05-03T00:18:19.314Z,43.11
2023-05-03T00:19:31.110Z,43.17
2023-05-03T00:20:26.180Z,43.18
2023-05-03T00:21:28.355Z,43.24
2023-05-03T00:22:30.943Z,43.26
2023-05-03T00:23:33.029Z,43.26
2023-05-03T00:24:35.643Z,43.32
2023-05-03T00:25:37.794Z,43.32
2023-05-03T00:26:40.466Z,43.38
2023-05-03T00:27:43.678Z,43.34
2023-05-03T00:28:45.895Z,43.44
2023-05-03T00:29:50.512Z,43.45
2023-05-03T00:30:53.133Z,43.48
2023-05-03T00:31:55.365Z,43.54
2023-05-03T00:32:58.183Z,43.57
2023-05-03T00:34:00.606Z,43.55
2023-05-03T00:35:03.354Z,43.53
2023-05-03T00:36:11.699Z,43.68
2023-05-03T00:37:14.409Z,43.64
2023-05-03T00:38:16.571Z,43.68
2023-05-03T00:39:18.774Z,43.73
2023-05-03T00:40:21.411Z,43.75
2023-05-03T00:41:23.597Z,43.84
2023-05-03T00:42:25.652Z,43.83
2023-05-03T00:43:27.738Z,43.75
2023-05-03T00:44:30.164Z,43.88
2023-05-03T00:45:33.940Z,43.87
2023-05-03T00:46:37.259Z,43.95
2023-05-03T00:47:39.711Z,43.92
2023-05-03T00:48:41.955Z,43.88
2023-05-03T00:49:44.115Z,43.98
2023-05-03T00:50:47.579Z,44.15
2023-05-03T00:51:53.485Z,44.06
2023-05-03T00:52:56.621Z,44.08
2023-05-03T00:54:00.413Z,44.07
2023-05-03T00:55:02.828Z,44.08
2023-05-03T00:56:06.402Z,44.08
2023-05-03T00:57:08.555Z,44.15
2023-05-03T00:58:10.899Z,44.19
2023-05-03T00:59:13.441Z,44.20
2023-05-03T01:00:16.774Z,44.16
2023-05-03T01:01:19.546Z,44.23
2023-05-03T01:02:21.911Z,44.23
2023-05-03T01:03:24.286Z,44.22
2023-05-03T01:04:26.896Z,44.22
2023-05-03T01:05:32.740Z,44.29
2023-05-03T01:06:58.182Z,44.27
2023-05-03T01:09:17.309Z,44.24
2023-05-03T01:12:00.134Z,44.39
2023-05-03T01:13:23.840Z,44.46
2023-05-03T01:14:41.297Z,44.51
2023-05-03T01:16:00.399Z,44.63
2023-05-03T01:17:06.705Z,44.67
2023-05-03T01:18:18.303Z,44.67
2023-05-03T01:19:30.096Z,44.67
2023-05-03T01:20:36.968Z,44.66
2023-05-03T01:21:47.503Z,44.73
2023-05-03T01:22:59.169Z,44.69
2023-05-03T01:24:16.948Z,44.75
2023-05-03T01:25:19.268Z,44.70
2023-05-03T01:26:23.553Z,44.71
2023-05-03T01:27:26.237Z,44.67
2023-05-03T01:28:28.504Z,44.75
2023-05-03T01:29:30.672Z,44.68
2023-05-03T01:30:34.246Z,44.75
2023-05-03T01:31:55.428Z,44.75
2023-05-03T01:33:21.196Z,44.73
2023-05-03T01:36:02.485Z,44.64
2023-05-03T01:37:05.002Z,44.72
2023-05-03T01:38:09.544Z,44.83
2023-05-03T01:39:21.165Z,44.81
2023-05-03T01:40:24.943Z,44.93
2023-05-03T01:41:27.673Z,44.94
2023-05-03T01:42:30.047Z,45.01
2023-05-03T01:43:33.820Z,45.09
2023-05-03T01:44:36.634Z,45.09
2023-05-03T01:45:39.929Z,45.13
2023-05-03T01:46:44.239Z,45.19
2023-05-03T01:47:47.037Z,45.22
2023-05-03T01:48:49.487Z,45.27
2023-05-03T01:49:52.132Z,45.23
2023-05-03T01:52:05.735Z,45.36
2023-05-03T01:53:07.989Z,45.36
2023-05-03T01:54:11.512Z,45.40
2023-05-03T01:55:13.587Z,45.44
2023-05-03T01:56:15.741Z,45.45
2023-05-03T01:57:18.329Z,45.49
2023-05-03T01:58:20.597Z,45.54
2023-05-03T01:59:22.852Z,45.54
2023-05-03T02:00:27.266Z,45.56
2023-05-03T02:01:30.109Z,45.58
2023-05-03T02:02:32.749Z,45.62
2023-05-03T02:03:35.105Z,45.62
2023-05-03T02:04:37.327Z,45.60
2023-05-03T02:05:39.558Z,45.68
2023-05-03T02:06:42.181Z,45.74
2023-05-03T02:07:45.385Z,45.75
2023-05-03T02:08:47.615Z,45.78
2023-05-03T02:09:49.796Z,45.87
2023-05-03T02:10:52.490Z,45.86
2023-05-03T02:11:54.742Z,45.95
2023-05-03T02:12:56.997Z,46.03
2023-05-03T02:13:59.152Z,46.07
2023-05-03T02:15:01.897Z,46.08
2023-05-03T02:16:04.781Z,46.11
2023-05-03T02:17:07.040Z,46.25
2023-05-03T02:18:09.415Z,46.27
2023-05-03T02:19:11.478Z,46.32
2023-05-03T02:20:14.769Z,46.42
2023-05-03T02:21:16.937Z,46.36
2023-05-03T02:22:20.044Z,46.39
2023-05-03T02:23:23.587Z,46.43
2023-05-03T02:24:25.758Z,46.44
2023-05-03T02:25:28.025Z,46.39
2023-05-03T02:26:30.827Z,46.42
2023-05-03T02:27:32.991Z,46.42
2023-05-03T02:28:35.054Z,46.40
2023-05-03T02:29:38.026Z,46.35
2023-05-03T02:30:42.975Z,46.31
2023-05-03T02:31:45.365Z,46.38
2023-05-03T02:32:48.349Z,46.49
2023-05-03T02:33:51.857Z,46.43
2023-05-03T02:34:54.988Z,46.39
2023-05-03T02:35:57.366Z,46.43
2023-05-03T02:37:00.129Z,46.43
2023-05-03T02:38:02.440Z,46.33
2023-05-03T02:39:04.591Z,46.33
2023-05-03T02:40:08.433Z,46.36
2023-05-03T02:41:11.065Z,46.30
2023-05-03T02:42:13.267Z,46.32
2023-05-03T02:43:15.665Z,46.36
2023-05-03T02:44:17.952Z,46.29
2023-05-03T02:45:20.241Z,46.20
2023-05-03T02:46:22.556Z,46.18
2023-05-03T02:47:25.591Z,46.13
2023-05-03T02:48:28.197Z,46.08
2023-05-03T02:49:31.522Z,46.02
2023-05-03T02:50:35.391Z,46.06
2023-05-03T02:51:38.654Z,46.03
2023-05-03T02:52:40.976Z,46.22
2023-05-03T02:53:43.612Z,46.14
2023-05-03T02:54:46.376Z,46.07
2023-05-03T02:55:49.665Z,46.19
2023-05-03T02:56:52.061Z,46.08
2023-05-03T02:57:54.218Z,46.07
2023-05-03T02:58:56.635Z,46.04
2023-05-03T02:59:59.315Z,46.10
2023-05-03T03:01:02.657Z,46.10
2023-05-03T03:02:06.692Z,46.02
2023-05-03T03:03:09.583Z,46.10
2023-05-03T03:04:13.211Z,46.09
2023-05-03T03:05:16.241Z,46.04
2023-05-03T03:06:20.519Z,46.16
2023-05-03T03:07:23.147Z,46.20
2023-05-03T03:08:27.534Z,46.14
2023-05-03T03:09:30.923Z,46.25
2023-05-03T03:10:34.657Z,46.23
2023-05-03T03:11:36.738Z,46.30
2023-05-03T03:12:38.887Z,46.26
2023-05-03T03:13:42.217Z,46.24
2023-05-03T03:14:44.974Z,46.25
2023-05-03T03:15:47.297Z,46.18
2023-05-03T03:16:51.118Z,46.17
2023-05-03T03:17:53.964Z,46.24
2023-05-03T03:18:56.578Z,46.31
2023-05-03T03:19:58.757Z,46.32
2023-05-03T03:21:02.236Z,46.28
2023-05-03T03:22:04.931Z,46.39
2023-05-03T03:23:07.195Z,46.36
2023-05-03T03:24:09.279Z,46.40
2023-05-03T03:25:11.153Z,46.56
2023-05-03T03:26:14.469Z,46.61
2023-05-03T03:27:16.722Z,46.54
2023-05-03T03:29:32.419Z,46.54
2023-05-03T03:30:36.132Z,46.68
2023-05-03T03:31:40.562Z,47.42
2023-05-03T03:32:43.062Z,48.20
2023-05-03T03:33:47.190Z,49.59
2023-05-03T03:34:50.326Z,50.28
2023-05-03T03:35:53.150Z,50.86
2023-05-03T03:36:57.728Z,51.31
2023-05-03T03:38:01.263Z,51.34
2023-05-03T03:39:03.754Z,51.37
2023-05-03T03:40:08.183Z,51.15
2023-05-03T03:41:11.192Z,50.99
2023-05-03T03:42:15.616Z,51.83
2023-05-03T03:43:17.826Z,51.32
2023-05-03T03:44:20.312Z,51.31
2023-05-03T03:45:22.955Z,52.10
2023-05-03T03:46:25.917Z,51.57
2023-05-03T03:47:29.117Z,51.61
2023-05-03T03:48:32.850Z,51.14
2023-05-03T03:49:35.525Z,50.82
2023-05-03T03:50:38.194Z,50.89
2023-05-03T03:51:41.455Z,51.39
2023-05-03T03:52:45.700Z,50.57
2023-05-03T03:53:47.965Z,50.67
2023-05-03T03:54:50.793Z,50.43
2023-05-03T03:55:53.162Z,50.46
2023-05-03T03:56:55.435Z,50.36
2023-05-03T03:57:58.714Z,50.00
2023-05-03T03:59:03.254Z,50.15
2023-05-03T04:00:07.130Z,50.26
2023-05-03T04:01:11.127Z,50.36
2023-05-03T04:02:13.866Z,50.11
2023-05-03T04:03:16.125Z,50.28
2023-05-03T04:04:18.652Z,50.03
2023-05-03T04:05:22.476Z,49.93
2023-05-03T04:06:25.815Z,49.47
2023-05-03T04:07:28.718Z,49.51
2023-05-03T04:08:31.329Z,49.39
2023-05-03T04:09:33.843Z,49.57
2023-05-03T04:10:36.653Z,49.57
2023-05-03T04:11:40.490Z,49.65
2023-05-03T04:12:43.878Z,49.42
2023-05-03T04:13:46.651Z,49.55
2023-05-03T04:14:49.082Z,49.23
2023-05-03T04:15:56.149Z,49.24
2023-05-03T04:16:58.684Z,49.35
2023-05-03T04:18:01.886Z,49.19
2023-05-03T04:19:04.574Z,49.30
2023-05-03T04:21:18.453Z,49.25
2023-05-03T04:22:21.977Z,49.52
2023-05-03T04:23:26.474Z,49.56
2023-05-03T04:24:29.296Z,49.90
2023-05-03T04:25:32.153Z,49.74
2023-05-03T04:26:39.291Z,49.80
2023-05-03T04:27:44.397Z,49.71
2023-05-03T04:28:47.461Z,49.54
2023-05-03T04:29:49.580Z,49.52
2023-05-03T04:30:52.965Z,49.23
2023-05-03T04:31:57.144Z,49.38
2023-05-03T04:32:59.364Z,49.12
2023-05-03T04:34:02.726Z,48.96
2023-05-03T04:35:06.213Z,48.75
2023-05-03T04:36:13.941Z,49.03
2023-05-03T04:37:19.744Z,49.30
2023-05-03T04:38:28.817Z,49.44
2023-05-03T04:39:38.060Z,49.42
2023-05-03T04:40:42.722Z,49.07
2023-05-03T04:41:46.012Z,48.70
2023-05-03T04:42:51.022Z,48.41
2023-05-03T04:43:57.295Z,47.85
2023-05-03T04:45:03.761Z,47.56
2023-05-03T04:46:10.258Z,47.45
2023-05-03T04:47:18.940Z,47.12
2023-05-03T04:48:23.312Z,46.83
2023-05-03T04:49:28.824Z,46.50
2023-05-03T04:50:32.913Z,46.46
2023-05-03T04:51:36.406Z,46.47
2023-05-03T04:52:38.612Z,46.48
2023-05-03T04:53:41.439Z,46.51
2023-05-03T04:54:45.395Z,46.36
2023-05-03T04:55:48.326Z,46.34
2023-05-03T04:56:50.789Z,46.24
2023-05-03T04:57:54.721Z,46.20
2023-05-03T04:58:57.227Z,46.26
2023-05-03T04:59:59.703Z,46.23
2023-05-03T05:01:01.835Z,46.23
2023-05-03T05:02:05.381Z,46.10
2023-05-03T05:03:08.123Z,45.97
2023-05-03T05:04:10.700Z,45.81
2023-05-03T05:05:15.590Z,45.84
2023-05-03T05:06:19.180Z,45.92
2023-05-03T05:07:21.616Z,46.03
2023-05-03T05:08:24.962Z,46.06
2023-05-03T05:09:29.482Z,46.10
2023-05-03T05:10:39.211Z,46.14
2023-05-03T05:11:41.606Z,46.21
2023-05-03T05:12:43.882Z,46.28
2023-05-03T05:13:47.359Z,46.09
2023-05-03T05:14:49.701Z,46.18
2023-05-03T05:15:52.354Z,46.36
2023-05-03T05:16:55.010Z,45.37
2023-05-03T05:17:57.823Z,45.23
2023-05-03T05:19:00.365Z,44.61
2023-05-03T05:20:03.305Z,44.38
2023-05-03T05:21:05.785Z,44.23
2023-05-03T05:22:08.362Z,43.95
2023-05-03T05:23:21.265Z,43.73
2023-05-03T05:24:23.670Z,43.56
2023-05-03T05:25:26.116Z,43.26
2023-05-03T05:26:28.912Z,43.45
2023-05-03T05:27:31.638Z,42.47
2023-05-03T05:28:34.378Z,46.08
2023-05-03T05:29:36.400Z,49.66
2023-05-03T05:30:40.315Z,48.90
2023-05-03T05:31:43.057Z,47.76
2023-05-03T05:32:45.801Z,45.94
2023-05-03T05:33:48.062Z,44.51
2023-05-03T05:34:50.371Z,43.57
2023-05-03T05:35:53.742Z,43.15
2023-05-03T05:36:56.850Z,42.03
2023-05-03T05:37:59.867Z,41.85
2023-05-03T05:39:03.053Z,41.42
2023-05-03T05:40:07.926Z,41.15
2023-05-03T05:41:12.022Z,40.68
2023-05-03T05:42:15.077Z,40.47
2023-05-03T05:43:17.061Z,40.08
2023-05-03T05:44:20.607Z,39.98
2023-05-03T05:45:24.762Z,39.33
2023-05-03T05:46:27.818Z,38.99
2023-05-03T05:47:30.714Z,38.45
2023-05-03T05:48:34.882Z,38.55
2023-05-03T05:49:37.751Z,38.15
2023-05-03T05:50:40.308Z,38.50
2023-05-03T05:51:44.404Z,37.96
2023-05-03T05:52:49.360Z,37.88
2023-05-03T05:53:51.988Z,37.76
2023-05-03T05:54:54.348Z,37.76
2023-05-03T05:57:12.703Z,38.00
2023-05-03T05:58:15.205Z,37.86
2023-05-03T05:59:19.919Z,37.71
2023-05-03T06:00:22.883Z,37.89
2023-05-03T06:01:25.178Z,38.23
2023-05-03T06:02:28.954Z,38.67
2023-05-03T06:03:33.019Z,38.76
2023-05-03T06:04:36.907Z,38.66
2023-05-03T06:05:58.796Z,38.94
2023-05-03T06:07:01.118Z,38.77
2023-05-03T06:08:03.969Z,38.47
2023-05-03T06:09:16.716Z,38.42
2023-05-03T06:10:11.447Z,38.37
2023-05-03T06:11:15.770Z,38.30
2023-05-03T06:12:18.841Z,38.07
2023-05-03T06:13:21.905Z,37.82
2023-05-03T06:14:24.839Z,37.94
2023-05-03T06:15:27.096Z,38.19
2023-05-03T06:16:29.367Z,38.26
2023-05-03T06:17:31.743Z,38.48
2023-05-03T06:18:34.080Z,38.94
2023-05-03T06:19:36.945Z,38.95
2023-05-03T06:20:39.319Z,39.26
2023-05-03T06:21:42.016Z,39.39
2023-05-03T06:22:45.398Z,39.36
2023-05-03T06:23:48.301Z,39.14
2023-05-03T06:24:50.982Z,39.45
2023-05-03T06:25:53.641Z,39.78
2023-05-03T06:26:56.289Z,40.11
2023-05-03T06:27:59.628Z,40.51
2023-05-03T06:29:03.624Z,40.40
2023-05-03T06:30:07.583Z,40.56
2023-05-03T06:31:10.050Z,40.67
2023-05-03T06:32:13.220Z,40.57
2023-05-03T06:33:16.596Z,40.54
2023-05-03T06:34:21.467Z,41.17
2023-05-03T06:35:24.340Z,43.16
2023-05-03T06:36:26.604Z,41.70
2023-05-03T06:37:29.179Z,41.18
2023-05-03T06:38:31.342Z,40.64
2023-05-03T06:39:34.222Z,40.44
2023-05-03T06:40:38.496Z,40.13
2023-05-03T06:41:41.079Z,40.40
2023-05-03T06:42:44.072Z,40.43
2023-05-03T06:43:50.185Z,40.76
2023-05-03T06:44:52.295Z,40.66
2023-05-03T06:45:54.580Z,40.96
2023-05-03T06:46:56.906Z,40.52
2023-05-03T06:48:00.144Z,39.96
2023-05-03T06:49:02.526Z,40.31
2023-05-03T06:50:05.791Z,40.57
2023-05-03T06:51:08.403Z,40.75
2023-05-03T06:52:11.866Z,40.50
2023-05-03T06:53:14.683Z,39.71
2023-05-03T06:54:16.918Z,39.82
2023-05-03T06:55:19.453Z,40.13
2023-05-03T06:56:22.127Z,40.30
2023-05-03T06:57:25.604Z,40.26
2023-05-03T06:58:29.276Z,40.30
2023-05-03T06:59:31.354Z,40.57
2023-05-03T07:00:33.593Z,40.20
2023-05-03T07:01:36.035Z,40.00
2023-05-03T07:02:39.442Z,40.15
2023-05-03T07:03:42.103Z,39.92
2023-05-03T07:04:45.024Z,39.49
2023-05-03T07:05:47.995Z,39.49
2023-05-03T07:06:56.524Z,39.04
2023-05-03T07:07:54.548Z,38.74
2023-05-03T07:08:57.217Z,37.75
2023-05-03T07:09:59.514Z,36.94
2023-05-03T07:11:01.704Z,36.29
2023-05-03T07:12:04.328Z,36.09
2023-05-03T07:13:07.118Z,36.13
2023-05-03T07:14:09.889Z,35.73
2023-05-03T07:15:12.063Z,35.37
2023-05-03T07:16:16.072Z,34.68
2023-05-03T07:17:18.688Z,34.48
2023-05-03T07:18:20.739Z,34.13
2023-05-03T07:19:23.224Z,34.00
2023-05-03T07:20:25.641Z,33.74
2023-05-03T07:21:27.711Z,33.57
2023-05-03T07:22:31.942Z,33.35
2023-05-03T07:23:34.573Z,33.66
2023-05-03T07:24:36.659Z,33.40
2023-05-03T07:25:38.692Z,33.55
2023-05-03T07:26:43.677Z,33.58
2023-05-03T07:27:45.974Z,33.32
2023-05-03T07:28:49.080Z,33.13
2023-05-03T07:29:51.206Z,33.71
2023-05-03T07:30:54.451Z,33.43
2023-05-03T07:31:57.089Z,33.78
2023-05-03T07:32:59.417Z,33.44
2023-05-03T07:34:01.962Z,33.40
2023-05-03T07:35:05.442Z,33.27
2023-05-03T07:36:08.907Z,32.83
2023-05-03T07:37:11.125Z,31.59
2023-05-03T07:38:13.198Z,31.27
2023-05-03T07:39:15.279Z,30.95
2023-05-03T07:40:19.904Z,31.32
2023-05-03T07:41:22.013Z,31.17
2023-05-03T07:42:24.062Z,31.19
2023-05-03T07:43:26.117Z,31.23
2023-05-03T07:44:29.327Z,31.31
2023-05-03T07:45:33.879Z,30.76
2023-05-03T07:46:36.414Z,30.86
2023-05-03T07:47:38.503Z,31.00
2023-05-03T07:48:41.863Z,30.93
2023-05-03T07:49:43.996Z,30.66
2023-05-03T07:50:46.662Z,30.74
2023-05-03T07:51:49.755Z,30.41
2023-05-03T07:52:52.451Z,30.55
2023-05-03T07:53:55.013Z,30.80
2023-05-03T07:54:57.113Z,30.51
2023-05-03T07:55:59.178Z,30.14
2023-05-03T07:57:01.861Z,29.62
2023-05-03T07:58:04.508Z,30.19
2023-05-03T07:59:09.901Z,29.93
2023-05-03T08:00:14.100Z,30.26
2023-05-03T08:01:16.210Z,29.97
2023-05-03T08:02:18.460Z,28.90
2023-05-03T08:03:22.013Z,28.90
2023-05-03T08:04:24.848Z,29.59
2023-05-03T08:05:27.671Z,28.70
2023-05-03T08:06:31.367Z,28.88
2023-05-03T08:07:33.564Z,28.40
2023-05-03T08:08:35.632Z,28.55
2023-05-03T08:09:37.803Z,28.40
2023-05-03T08:10:40.358Z,28.29
2023-05-03T08:11:44.277Z,27.96
2023-05-03T08:12:46.729Z,27.99
2023-05-03T08:13:48.800Z,28.04
2023-05-03T08:14:52.473Z,27.91
2023-05-03T08:15:54.748Z,27.92
2023-05-03T08:16:56.989Z,27.95
2023-05-03T08:17:59.201Z,28.13
2023-05-03T08:19:03.826Z,27.61
2023-05-03T08:20:08.491Z,27.90
2023-05-03T08:21:11.222Z,27.80
2023-05-03T08:22:13.980Z,27.59
2023-05-03T08:23:19.120Z,27.46
2023-05-03T08:24:21.406Z,27.36
2023-05-03T08:25:23.560Z,27.41
2023-05-03T08:26:25.890Z,27.63
2023-05-03T08:27:28.571Z,27.74
2023-05-03T08:28:30.628Z,28.08
2023-05-03T08:29:34.083Z,27.81
2023-05-03T08:30:36.752Z,27.88
2023-05-03T08:31:38.880Z,28.01
2023-05-03T08:32:40.932Z,28.26
2023-05-03T08:33:43.033Z,28.29
2023-05-03T08:34:45.598Z,27.50
2023-05-03T08:35:49.398Z,27.72
2023-05-03T08:36:52.053Z,28.07
2023-05-03T08:37:54.117Z,28.22
2023-05-03T08:38:56.090Z,27.56
2023-05-03T08:40:00.540Z,27.54
2023-05-03T08:41:06.365Z,27.68
2023-05-03T08:42:09.450Z,27.52
2023-05-03T08:43:13.401Z,27.49
2023-05-03T08:44:19.667Z,27.45
2023-05-03T08:45:22.807Z,27.63
2023-05-03T08:46:25.773Z,27.96
2023-05-03T08:47:28.145Z,27.89
2023-05-03T08:48:31.254Z,28.16
2023-05-03T08:49:34.021Z,27.86
2023-05-03T08:50:38.138Z,28.49
2023-05-03T08:51:40.849Z,27.98
2023-05-03T08:52:43.674Z,28.11
2023-05-03T08:53:47.051Z,28.07
2023-05-03T08:54:49.785Z,28.33
2023-05-03T08:55:52.440Z,28.10
2023-05-03T08:56:54.560Z,28.45
2023-05-03T08:57:57.134Z,28.23
2023-05-03T08:59:00.549Z,28.18
2023-05-03T09:00:05.541Z,28.25
2023-05-03T09:01:09.294Z,28.65
2023-05-03T09:02:12.115Z,28.29
2023-05-03T09:03:14.355Z,28.08
2023-05-03T09:04:17.529Z,28.86
2023-05-03T09:05:23.647Z,28.46
2023-05-03T09:06:26.253Z,28.40
2023-05-03T09:07:28.691Z,28.92
2023-05-03T09:08:30.931Z,28.14
2023-05-03T09:09:33.064Z,28.35
2023-05-03T09:10:40.419Z,28.02
2023-05-03T09:11:42.510Z,28.38
2023-05-03T09:12:44.612Z,27.87
2023-05-03T09:13:46.809Z,27.68
2023-05-03T09:14:48.896Z,27.90
2023-05-03T09:15:56.237Z,27.90
2023-05-03T09:17:02.413Z,28.48
2023-05-03T09:18:14.878Z,28.76
2023-05-03T09:19:17.218Z,28.59
2023-05-03T09:20:24.181Z,28.91
2023-05-03T09:22:48.273Z,28.67
2023-05-03T09:23:50.310Z,28.98
2023-05-03T09:25:00.731Z,29.08
2023-05-03T09:26:03.492Z,28.86
2023-05-03T09:28:19.542Z,28.97
2023-05-03T09:29:32.399Z,29.31
2023-05-03T09:30:34.871Z,29.40
2023-05-03T09:31:37.367Z,28.99
2023-05-03T09:32:49.020Z,28.76
2023-05-03T09:33:51.321Z,28.51
2023-05-03T09:34:56.942Z,28.67
2023-05-03T09:37:38.788Z,29.39
2023-05-03T09:38:41.984Z,29.09
2023-05-03T09:41:01.804Z,29.17
2023-05-03T09:43:23.373Z,28.74
2023-05-03T09:44:45.191Z,28.76
2023-05-03T09:45:49.400Z,28.69
2023-05-03T09:47:05.802Z,28.56
2023-05-03T09:48:08.067Z,28.45
2023-05-03T09:49:10.315Z,28.51
2023-05-03T09:50:13.235Z,28.63
2023-05-03T09:51:16.187Z,28.76
2023-05-03T09:52:19.400Z,29.20
2023-05-03T09:53:22.371Z,28.98
2023-05-03T09:54:25.793Z,29.09
2023-05-03T09:55:33.859Z,30.08
2023-05-03T09:56:37.162Z,29.88
2023-05-03T09:57:40.361Z,29.84
2023-05-03T09:58:44.050Z,30.29
2023-05-03T09:59:46.899Z,30.38
2023-05-03T10:00:51.658Z,30.43
2023-05-03T10:01:59.068Z,30.05
2023-05-03T10:03:02.143Z,29.92
2023-05-03T10:04:05.431Z,29.99
2023-05-03T10:05:10.720Z,30.20
2023-05-03T10:06:38.031Z,30.16
2023-05-03T10:07:41.927Z,30.67
2023-05-03T10:08:50.926Z,30.94
2023-05-03T10:09:53.980Z,30.74
2023-05-03T10:10:56.614Z,30.13
2023-05-03T10:12:00.364Z,30.50
2023-05-03T10:13:03.300Z,29.81
2023-05-03T10:14:05.787Z,30.17
2023-05-03T10:15:10.474Z,30.48
2023-05-03T10:16:16.600Z,30.52
2023-05-03T10:17:47.099Z,31.19
2023-05-03T10:18:39.112Z,31.30
2023-05-03T10:19:50.567Z,31.62
2023-05-03T10:20:56.734Z,31.57
2023-05-03T10:22:04.978Z,31.68
2023-05-03T10:23:09.107Z,31.56
2023-05-03T10:24:16.702Z,31.48
2023-05-03T10:25:20.082Z,31.55
2023-05-03T10:26:22.924Z,31.79
2023-05-03T10:27:27.726Z,31.57
2023-05-03T10:28:33.092Z,32.47
2023-05-03T10:29:38.929Z,32.39
2023-05-03T10:30:42.637Z,32.47
2023-05-03T10:31:46.694Z,32.01
2023-05-03T10:32:49.013Z,32.00
2023-05-03T10:33:51.728Z,31.81
2023-05-03T10:35:00.592Z,32.25
2023-05-03T10:36:07.263Z,32.03
2023-05-03T10:37:10.620Z,32.45
2023-05-03T10:38:27.109Z,32.29
2023-05-03T10:39:30.557Z,31.94
2023-05-03T10:40:43.351Z,31.60
2023-05-03T10:43:27.678Z,31.53
2023-05-03T10:44:50.065Z,31.53
2023-05-03T10:45:52.361Z,31.16
2023-05-03T10:46:54.993Z,31.18
2023-05-03T10:48:16.946Z,31.00
2023-05-03T10:49:21.617Z,30.90
2023-05-03T10:50:24.936Z,31.71
2023-05-03T10:51:34.284Z,31.37
2023-05-03T10:52:42.827Z,31.79
2023-05-03T10:53:45.060Z,31.93
2023-05-03T10:54:47.666Z,33.10
2023-05-03T10:56:03.795Z,32.05
2023-05-03T10:57:06.389Z,32.71
2023-05-03T10:58:10.346Z,33.06
2023-05-03T10:59:25.429Z,32.44
2023-05-03T11:00:36.645Z,32.51
2023-05-03T11:01:53.507Z,32.74
2023-05-03T11:03:32.665Z,32.29
2023-05-03T11:04:41.618Z,32.27
2023-05-03T11:07:02.688Z,32.57
2023-05-03T11:08:17.912Z,32.73
2023-05-03T11:09:20.126Z,32.57
2023-05-03T11:10:22.874Z,32.64
2023-05-03T11:11:25.166Z,32.97
2023-05-03T11:12:27.365Z,32.57
2023-05-03T11:13:30.087Z,32.46
2023-05-03T11:14:33.046Z,32.81
2023-05-03T11:15:35.297Z,32.82
2023-05-03T11:16:39.268Z,32.94
2023-05-03T11:17:41.854Z,32.61
2023-05-03T11:18:44.999Z,32.47
2023-05-03T11:19:47.249Z,33.36
2023-05-03T11:20:49.420Z,33.23
2023-05-03T11:21:52.296Z,33.20
2023-05-03T11:22:57.992Z,32.95
2023-05-03T11:24:01.422Z,32.86
2023-05-03T11:25:04.636Z,32.35
2023-05-03T11:26:09.210Z,32.53
2023-05-03T11:27:11.531Z,32.98
2023-05-03T11:28:13.592Z,32.83
2023-05-03T11:29:15.770Z,33.04
2023-05-03T11:30:17.938Z,33.16
2023-05-03T11:31:20.848Z,33.53
2023-05-03T11:32:27.740Z,33.24
2023-05-03T11:33:30.939Z,33.38
2023-05-03T11:34:33.242Z,33.17
2023-05-03T11:35:35.419Z,33.24
2023-05-03T11:36:37.814Z,33.46
2023-05-03T11:37:40.710Z,33.79
2023-05-03T11:38:43.493Z,33.67
2023-05-03T11:39:45.579Z,33.78
2023-05-03T11:40:47.985Z,33.97
2023-05-03T11:42:04.804Z,33.95
2023-05-03T11:43:07.120Z,33.67
2023-05-03T11:44:16.915Z,34.14
2023-05-03T11:45:13.692Z,34.35
2023-05-03T11:47:32.046Z,33.16
2023-05-03T11:48:34.574Z,33.66
2023-05-03T11:49:36.727Z,33.13
2023-05-03T11:50:48.673Z,34.02
2023-05-03T11:51:53.829Z,33.67
2023-05-03T11:52:56.164Z,34.61
2023-05-03T11:54:06.845Z,33.88
2023-05-03T11:55:06.800Z,34.03
2023-05-03T11:56:14.924Z,33.92
2023-05-03T11:57:17.263Z,34.18
2023-05-03T11:58:22.135Z,33.68
2023-05-03T12:00:48.312Z,34.11
2023-05-03T12:01:53.051Z,33.72
2023-05-03T12:03:01.964Z,33.30
2023-05-03T12:04:05.007Z,33.13
2023-05-03T12:05:09.694Z,33.14
2023-05-03T12:06:14.537Z,33.23
2023-05-03T12:07:19.875Z,33.49
2023-05-03T12:09:41.080Z,33.49
2023-05-03T12:10:45.630Z,33.88
2023-05-03T12:11:50.815Z,34.05
2023-05-03T12:12:56.542Z,34.39
2023-05-03T12:14:00.170Z,33.73
2023-05-03T12:15:04.254Z,33.24
2023-05-03T12:16:13.504Z,33.10
2023-05-03T12:17:12.949Z,33.49
2023-05-03T12:18:15.678Z,33.43
2023-05-03T12:19:32.186Z,34.08
2023-05-03T12:21:28.546Z,33.45
2023-05-03T12:21:54.920Z,33.18
2023-05-03T12:24:06.443Z,33.32
2023-05-03T12:25:09.628Z,33.83
2023-05-03T12:26:14.483Z,34.23
2023-05-03T12:27:19.246Z,34.41
2023-05-03T12:28:21.619Z,34.43
2023-05-03T12:29:24.821Z,34.11
2023-05-03T12:30:29.008Z,34.48
2023-05-03T12:31:34.410Z,34.72
2023-05-03T12:32:39.061Z,34.40
2023-05-03T12:33:43.331Z,34.76
2023-05-03T12:34:46.918Z,34.57
2023-05-03T12:35:52.773Z,34.09
2023-05-03T12:36:56.499Z,33.77
2023-05-03T12:38:01.652Z,33.91
2023-05-03T12:39:03.706Z,33.69
2023-05-03T12:40:31.811Z,34.31
2023-05-03T12:41:13.133Z,33.76
2023-05-03T12:42:15.822Z,34.01
2023-05-03T12:43:18.131Z,33.38
2023-05-03T12:44:23.315Z,33.60
2023-05-03T12:45:28.498Z,33.64
2023-05-03T12:46:33.813Z,34.03
2023-05-03T12:47:36.468Z,34.14
2023-05-03T12:48:40.562Z,34.03
2023-05-03T12:49:46.035Z,34.57
2023-05-03T12:50:51.827Z,34.17
2023-05-03T12:52:11.448Z,34.80
2023-05-03T12:53:01.934Z,34.62
2023-05-03T12:54:04.632Z,34.02
2023-05-03T12:55:11.234Z,34.35
2023-05-03T12:56:13.753Z,33.78
2023-05-03T12:57:22.669Z,33.89
2023-05-03T12:58:49.927Z,33.49
2023-05-03T13:00:35.069Z,34.07
2023-05-03T13:02:23.515Z,34.77
2023-05-03T13:03:21.290Z,34.24
2023-05-03T13:03:58.272Z,34.35
2023-05-03T13:04:57.938Z,34.26
2023-05-03T13:05:54.444Z,34.91
2023-05-03T13:07:01.418Z,35.82
2023-05-03T13:08:08.544Z,34.50
2023-05-03T13:09:08.326Z,34.50
2023-05-03T13:11:16.645Z,34.64
2023-05-03T13:12:19.472Z,34.31
2023-05-03T13:13:22.027Z,34.46
2023-05-03T13:14:30.757Z,34.12
2023-05-03T13:16:46.417Z,33.88
2023-05-03T13:17:51.517Z,33.80
2023-05-03T13:18:53.763Z,34.00
2023-05-03T13:19:56.018Z,33.72
2023-05-03T13:20:58.592Z,33.31
2023-05-03T13:22:00.826Z,33.37
2023-05-03T13:23:03.195Z,33.45
2023-05-03T13:24:05.866Z,33.08
2023-05-03T13:25:09.512Z,33.27
2023-05-03T13:26:43.555Z,33.20
2023-05-03T13:27:45.815Z,33.17
2023-05-03T13:28:48.122Z,33.19
2023-05-03T13:29:52.606Z,33.26
2023-05-03T13:30:55.558Z,33.66
2023-05-03T13:31:59.279Z,33.36
2023-05-03T13:33:03.338Z,33.58
2023-05-03T13:34:06.542Z,33.14
2023-05-03T13:35:12.599Z,33.06
2023-05-03T13:36:15.187Z,33.18
2023-05-03T13:37:17.376Z,33.35
2023-05-03T13:38:21.509Z,33.11
2023-05-03T13:39:23.698Z,33.23
2023-05-03T13:40:31.057Z,33.10
2023-05-03T13:41:41.078Z,33.92
2023-05-03T13:42:52.494Z,33.54
2023-05-03T13:43:56.713Z,34.13
2023-05-03T13:45:03.696Z,34.02
2023-05-03T13:46:08.420Z,33.94
2023-05-03T13:47:14.488Z,34.09
2023-05-03T13:48:18.959Z,33.81
2023-05-03T13:49:21.965Z,34.03
2023-05-03T13:50:24.276Z,34.47
2023-05-03T13:51:26.460Z,34.59
2023-05-03T13:52:29.056Z,34.25
2023-05-03T13:53:31.129Z,34.17
2023-05-03T13:54:33.704Z,33.92
2023-05-03T13:55:35.788Z,34.26
2023-05-03T13:56:38.120Z,34.40
2023-05-03T13:57:40.341Z,33.98
2023-05-03T13:58:42.505Z,34.50
2023-05-03T13:59:44.661Z,34.65
2023-05-03T14:00:46.875Z,34.48
2023-05-03T14:01:54.037Z,34.65
2023-05-03T14:02:59.946Z,34.66
2023-05-03T14:04:02.254Z,34.72
2023-05-03T14:05:06.379Z,33.93
2023-05-03T14:06:10.420Z,33.76
2023-05-03T14:07:12.493Z,33.78
2023-05-03T14:08:15.267Z,33.80
2023-05-03T14:09:19.465Z,34.81
2023-05-03T14:10:22.576Z,34.38
2023-05-03T14:11:27.389Z,34.57
2023-05-03T14:12:31.923Z,34.74
2023-05-03T14:13:47.485Z,34.89